createdAt,value
2017-08-16T03:30:18.389Z,75.00
2017-08-16T03:32:46.034Z,75.40
2017-08-16T03:35:13.676Z,75.40
2017-08-16T03:37:41.736Z,75.90
2017-08-16T03:40:09.399Z,76.80
2017-08-16T03:42:37.018Z,76.90
2017-08-16T03:45:05.130Z,76.60
2017-08-16T03:47:32.785Z,76.50
2017-08-16T03:50:00.425Z,75.50
2017-08-16T03:52:28.518Z,76.00
2017-08-16T03:54:56.971Z,75.30
2017-08-16T03:57:24.632Z,75.20
2017-08-16T03:59:52.735Z,74.50
2017-08-16T04:02:21.157Z,74.90
2017-08-16T04:04:48.798Z,74.90
2017-08-16T04:07:16.866Z,76.20
2017-08-16T04:09:44.519Z,77.70
2017-08-16T04:12:12.132Z,78.70
2017-08-16T04:14:40.124Z,79.10
2017-08-16T04:17:07.757Z,78.30
2017-08-16T04:19:35.387Z,78.30
2017-08-16T04:22:03.385Z,77.70
2017-08-16T04:24:31.064Z,77.20
2017-08-16T04:26:58.708Z,76.70
2017-08-16T04:29:26.717Z,75.30
2017-08-16T04:31:54.358Z,74.70
2017-08-16T04:34:21.997Z,74.90
2017-08-16T04:36:50.091Z,75.20
2017-08-16T04:39:17.722Z,74.60
2017-08-16T04:41:45.361Z,74.30
2017-08-16T04:44:13.423Z,73.20
2017-08-16T04:46:41.029Z,73.40
2017-08-16T04:49:08.661Z,73.30
2017-08-16T04:51:36.801Z,72.60
2017-08-16T04:54:05.180Z,72.20
2017-08-16T04:56:32.890Z,72.20
2017-08-16T04:59:00.909Z,72.30
2017-08-16T05:01:28.562Z,72.60
2017-08-16T05:03:56.201Z,72.50
2017-08-16T05:06:24.224Z,72.10
2017-08-16T05:08:51.872Z,72.10
2017-08-16T05:11:20.281Z,72.70
2017-08-16T05:13:48.273Z,72.70
2017-08-16T05:16:15.903Z,72.60
2017-08-16T05:18:43.550Z,72.40
2017-08-16T05:21:12.336Z,72.70
2017-08-16T05:23:40.751Z,72.60
2017-08-16T05:26:08.404Z,72.60
2017-08-16T05:28:36.441Z,73.10
2017-08-16T05:31:04.872Z,73.40
2017-08-16T05:33:32.497Z,73.40
2017-08-16T05:36:00.617Z,72.90
2017-08-16T05:38:28.280Z,73.00
2017-08-16T05:40:55.914Z,73.30
2017-08-16T05:43:23.976Z,75.00
2017-08-16T05:45:51.636Z,76.80
2017-08-16T05:48:19.258Z,76.80
2017-08-16T05:50:47.293Z,77.70
2017-08-16T05:53:14.944Z,78.20
2017-08-16T05:55:42.632Z,77.90
2017-08-16T05:58:10.759Z,77.60
2017-08-16T06:00:38.424Z,77.40
2017-08-16T06:03:06.101Z,76.80
2017-08-16T06:05:34.119Z,76.00
2017-08-16T06:08:01.772Z,76.60
2017-08-16T06:10:29.429Z,76.30
2017-08-16T06:12:57.430Z,76.20
2017-08-16T06:15:25.109Z,76.70
2017-08-16T06:17:52.878Z,76.80
2017-08-16T06:20:20.916Z,76.20
2017-08-16T06:22:48.561Z,75.60
2017-08-16T06:25:16.238Z,75.50
2017-08-16T06:27:44.249Z,74.40
2017-08-16T06:30:11.989Z,73.60
2017-08-16T06:32:39.626Z,73.50
2017-08-16T06:35:07.613Z,72.80
2017-08-16T06:37:36.013Z,73.80
2017-08-16T06:40:04.546Z,73.70
2017-08-16T06:42:32.663Z,74.20
2017-08-16T06:45:00.295Z,74.40
2017-08-16T06:47:27.927Z,74.50
2017-08-16T06:49:55.926Z,74.80
2017-08-16T06:52:23.567Z,74.40
2017-08-16T06:54:51.229Z,74.30
2017-08-16T06:57:19.244Z,73.80
2017-08-16T06:59:46.894Z,73.00
2017-08-16T07:02:15.301Z,70.70
2017-08-16T07:04:43.367Z,70.60
2017-08-16T07:07:11.006Z,70.70
2017-08-16T07:09:39.421Z,69.20
2017-08-16T07:12:07.465Z,69.10
2017-08-16T07:14:35.867Z,69.20
2017-08-16T07:17:03.531Z,69.10
2017-08-16T07:19:31.522Z,68.00
2017-08-16T07:21:59.185Z,67.50
2017-08-16T07:24:26.813Z,68.60
2017-08-16T07:26:54.872Z,67.50
2017-08-16T07:29:23.386Z,65.00
2017-08-16T07:31:51.034Z,64.90
2017-08-16T07:34:19.054Z,64.90
2017-08-16T07:36:46.692Z,65.90
2017-08-16T07:39:14.340Z,66.10
2017-08-16T07:41:42.385Z,66.70
2017-08-16T07:44:10.036Z,67.70
2017-08-16T07:46:38.451Z,68.80
2017-08-16T07:49:06.613Z,68.70
2017-08-16T07:51:34.370Z,68.70
2017-08-16T07:54:02.014Z,67.40
2017-08-16T07:56:30.805Z,65.00
2017-08-16T07:58:59.224Z,65.90
2017-08-16T08:01:26.866Z,65.90
2017-08-16T08:03:54.944Z,65.30
2017-08-16T08:06:22.604Z,64.80
2017-08-16T08:08:50.396Z,64.60
2017-08-16T08:11:18.430Z,64.10
2017-08-16T08:13:46.970Z,62.60
2017-08-16T08:16:14.624Z,60.40
2017-08-16T08:18:42.733Z,61.90
2017-08-16T08:21:11.161Z,61.20
2017-08-16T08:23:38.815Z,61.20
2017-08-16T08:26:06.892Z,61.10
2017-08-16T08:28:34.643Z,61.80
2017-08-16T08:31:02.303Z,59.60
2017-08-16T08:33:30.578Z,59.60
2017-08-16T08:35:58.228Z,59.90
2017-08-16T08:38:25.886Z,58.50
2017-08-16T08:40:54.040Z,55.50
2017-08-16T08:43:22.490Z,54.50
2017-08-16T08:45:50.131Z,54.40
2017-08-16T08:48:18.181Z,53.10
2017-08-16T08:50:45.846Z,54.10
2017-08-16T08:53:13.499Z,52.30
2017-08-16T08:55:41.553Z,51.20
2017-08-16T08:58:09.207Z,51.50
2017-08-16T09:00:37.622Z,51.50
2017-08-16T09:03:05.841Z,51.40
2017-08-16T09:05:33.490Z,48.90
2017-08-16T09:08:01.212Z,46.00
2017-08-16T09:10:29.241Z,45.40
2017-08-16T09:12:56.905Z,44.00
2017-08-16T09:15:24.642Z,45.30
2017-08-16T09:17:52.790Z,43.70
2017-08-16T09:20:20.563Z,42.90
2017-08-16T09:22:48.202Z,45.00
2017-08-16T09:25:16.183Z,47.60
2017-08-16T09:27:43.823Z,50.50
2017-08-16T09:30:12.237Z,49.20
2017-08-16T09:32:40.266Z,49.10
2017-08-16T09:35:08.828Z,37.60
2017-08-16T09:37:37.245Z,40.60
2017-08-16T09:40:05.330Z,40.40
2017-08-16T09:42:33.002Z,39.10
2017-08-16T09:45:00.652Z,38.70
2017-08-16T09:47:28.724Z,35.20
2017-08-16T09:49:56.398Z,31.30
2017-08-16T09:52:24.258Z,32.90
2017-08-16T09:54:52.417Z,35.50
2017-08-16T09:57:20.216Z,34.90
2017-08-16T09:59:47.887Z,37.80
2017-08-16T10:02:15.915Z,41.40
2017-08-16T10:04:43.573Z,44.10
2017-08-16T10:07:11.229Z,46.60
2017-08-16T10:09:39.242Z,47.50
2017-08-16T10:12:06.867Z,39.50
2017-08-16T10:14:34.492Z,30.70
2017-08-16T10:17:02.576Z,28.80
2017-08-16T10:19:30.990Z,37.20
2017-08-16T10:21:58.733Z,37.10
2017-08-16T10:24:26.776Z,38.50
2017-08-16T10:26:54.432Z,39.80
2017-08-16T10:29:22.084Z,38.20
2017-08-16T10:31:50.177Z,35.50
2017-08-16T10:34:17.912Z,29.00
2017-08-16T10:36:45.606Z,25.60
2017-08-16T10:39:13.607Z,23.80
2017-08-16T10:41:41.262Z,22.90
2017-08-16T10:44:08.923Z,22.30
2017-08-16T10:46:36.946Z,21.70
2017-08-16T10:49:04.616Z,20.60
2017-08-16T10:51:32.282Z,20.50
2017-08-16T10:54:00.379Z,19.70
2017-08-16T10:56:28.792Z,24.50
2017-08-16T10:58:56.525Z,24.50
2017-08-16T11:01:24.591Z,25.60
2017-08-16T11:03:52.322Z,29.30
2017-08-16T11:06:19.961Z,31.40
2017-08-16T11:08:48.088Z,33.90
2017-08-16T11:11:16.519Z,37.20
2017-08-16T11:13:44.197Z,37.10
2017-08-16T11:16:12.197Z,36.20
2017-08-16T11:18:40.615Z,24.90
2017-08-16T11:21:08.262Z,24.80
2017-08-16T11:23:36.313Z,23.50
2017-08-16T11:26:04.771Z,21.20
2017-08-16T11:28:32.587Z,21.10
2017-08-16T11:31:00.643Z,21.20
2017-08-16T11:33:29.044Z,23.50
2017-08-16T11:35:56.815Z,23.50
2017-08-16T11:38:24.798Z,22.50
2017-08-16T11:40:52.448Z,21.80
2017-08-16T11:43:20.103Z,20.70
2017-08-16T11:45:48.140Z,19.80
2017-08-16T11:48:16.549Z,19.50
2017-08-16T11:50:44.208Z,19.40
2017-08-16T11:53:12.247Z,21.10
2017-08-16T11:55:40.683Z,23.10
2017-08-16T11:58:08.347Z,23.00
2017-08-16T12:00:36.375Z,25.20
2017-08-16T12:03:04.080Z,27.80
2017-08-16T12:05:31.771Z,30.60
2017-08-16T12:07:59.770Z,31.40
2017-08-16T12:10:27.410Z,31.70
2017-08-16T12:12:55.815Z,30.40
2017-08-16T12:15:23.865Z,30.10
2017-08-16T12:17:51.513Z,29.90
2017-08-16T12:20:19.216Z,31.20
2017-08-16T12:22:47.267Z,29.60
2017-08-16T12:25:15.664Z,30.20
2017-08-16T12:27:43.319Z,30.20
2017-08-16T12:30:11.381Z,29.90
2017-08-16T12:32:39.777Z,31.20
2017-08-16T12:35:07.401Z,31.10
2017-08-16T12:37:35.442Z,31.00
2017-08-16T12:40:03.096Z,32.30
2017-08-16T12:42:30.785Z,32.00
2017-08-16T12:44:59.622Z,31.30
2017-08-16T12:47:27.280Z,31.70
2017-08-16T12:49:54.925Z,32.00
2017-08-16T12:52:23.735Z,33.50
2017-08-16T12:54:51.381Z,33.50
2017-08-16T12:57:19.025Z,33.30
2017-08-16T12:59:47.044Z,32.40
2017-08-16T13:02:14.691Z,32.10
2017-08-16T13:04:42.345Z,32.50
2017-08-16T13:07:10.395Z,33.30
2017-08-16T13:09:38.829Z,34.10
2017-08-16T13:12:06.466Z,34.10
2017-08-16T13:14:34.530Z,34.70
2017-08-16T13:17:02.175Z,33.30
2017-08-16T13:19:30.595Z,33.80
2017-08-16T13:21:58.694Z,33.70
2017-08-16T13:24:26.366Z,35.30
2017-08-16T13:26:54.012Z,36.50
2017-08-16T13:29:22.138Z,35.70
2017-08-16T13:31:49.775Z,36.50
2017-08-16T13:34:18.191Z,35.00
2017-08-16T13:36:46.358Z,35.20
2017-08-16T13:39:14.077Z,35.30
2017-08-16T13:41:41.731Z,35.60
2017-08-16T13:44:09.743Z,36.40
2017-08-16T13:46:37.382Z,35.80
2017-08-16T13:49:05.812Z,37.20
2017-08-16T13:51:33.871Z,37.00
2017-08-16T13:54:01.511Z,36.60
2017-08-16T13:56:29.929Z,36.20
2017-08-16T13:58:58.100Z,36.20
2017-08-16T14:01:25.749Z,35.40
2017-08-16T14:03:53.394Z,35.40
2017-08-16T14:06:21.467Z,36.50
2017-08-16T14:08:49.118Z,37.00
2017-08-16T14:11:18.785Z,37.10
2017-08-16T14:13:46.793Z,37.00
2017-08-16T14:16:16.276Z,37.70
2017-08-16T14:18:43.928Z,37.70
2017-08-16T14:21:11.939Z,37.30
2017-08-16T14:23:40.288Z,38.00
2017-08-16T14:26:07.978Z,37.70
2017-08-16T14:28:36.148Z,38.80
2017-08-16T14:31:04.620Z,38.10
2017-08-16T14:33:32.280Z,38.10
2017-08-16T14:36:00.292Z,37.60
2017-08-16T14:38:27.978Z,37.00
2017-08-16T14:40:55.652Z,35.60
2017-08-16T14:43:23.663Z,37.10
2017-08-16T14:45:51.328Z,38.00
2017-08-16T14:48:19.048Z,38.20
2017-08-16T14:50:47.394Z,39.00
2017-08-16T14:53:15.035Z,39.40
2017-08-16T14:55:42.698Z,39.00
2017-08-16T14:58:10.761Z,38.90
2017-08-16T15:00:38.415Z,38.60
2017-08-16T15:03:06.088Z,39.70
2017-08-16T15:05:34.102Z,39.90
2017-08-16T15:08:01.787Z,39.70
2017-08-16T15:10:29.461Z,39.50
2017-08-16T15:12:58.373Z,40.40
2017-08-16T15:15:26.029Z,40.20
2017-08-16T15:17:53.702Z,41.60
2017-08-16T15:20:21.772Z,40.90
2017-08-16T15:22:49.441Z,40.10
2017-08-16T15:25:17.109Z,39.90
2017-08-16T15:27:45.134Z,39.80
2017-08-16T15:30:12.784Z,39.70
2017-08-16T15:32:40.425Z,39.30
2017-08-16T15:35:08.563Z,40.20
2017-08-16T15:37:36.217Z,40.10
2017-08-16T15:40:03.867Z,39.70
2017-08-16T15:42:32.669Z,39.40
2017-08-16T15:45:00.292Z,39.30
2017-08-16T15:47:27.955Z,39.50
2017-08-16T15:49:55.944Z,40.40
2017-08-16T15:52:24.394Z,39.80
2017-08-16T15:54:52.138Z,39.50
2017-08-16T15:57:20.190Z,40.50
2017-08-16T15:59:47.826Z,40.50
2017-08-16T16:02:16.250Z,40.10
2017-08-16T16:04:44.304Z,40.00
2017-08-16T16:07:11.955Z,39.30
2017-08-16T16:09:39.583Z,39.30
2017-08-16T16:12:07.689Z,38.70
2017-08-16T16:14:35.327Z,39.20
2017-08-16T16:17:03.770Z,39.70
2017-08-16T16:19:31.767Z,40.10
2017-08-16T16:21:59.426Z,39.80
2017-08-16T16:24:27.108Z,39.70
2017-08-16T16:26:55.182Z,40.60
2017-08-16T16:29:23.607Z,40.20
2017-08-16T16:31:51.258Z,39.50
2017-08-16T16:34:19.295Z,40.20
2017-08-16T16:36:47.701Z,41.20
2017-08-16T16:39:15.349Z,41.20
2017-08-16T16:41:43.375Z,40.00
2017-08-16T16:44:11.013Z,41.20
2017-08-16T16:46:38.675Z,40.20
2017-08-16T16:49:06.803Z,41.50
2017-08-16T16:51:34.463Z,41.50
2017-08-16T16:54:02.871Z,42.00
2017-08-16T16:56:30.934Z,42.00
2017-08-16T16:58:58.565Z,42.30
2017-08-16T17:01:26.214Z,42.00
2017-08-16T17:03:53.875Z,41.80
2017-08-16T17:06:21.526Z,41.20
2017-08-16T17:08:49.944Z,42.30
2017-08-16T17:11:17.595Z,43.00
2017-08-16T17:13:45.249Z,43.80
2017-08-16T17:16:12.917Z,43.70
2017-08-16T17:18:41.326Z,45.40
2017-08-16T17:21:09.073Z,45.40
2017-08-16T17:23:37.496Z,46.40
2017-08-16T17:26:05.527Z,46.40
2017-08-16T17:28:34.001Z,46.20
2017-08-16T17:31:01.659Z,46.20
2017-08-16T17:33:31.542Z,47.20
2017-08-16T17:35:59.193Z,47.80
2017-08-16T17:38:26.902Z,47.20
2017-08-16T17:40:55.700Z,49.90
2017-08-16T17:43:23.399Z,49.80
2017-08-16T17:45:51.068Z,49.30
2017-08-16T17:48:19.203Z,49.60
2017-08-16T17:50:46.847Z,49.80
2017-08-16T17:53:15.282Z,50.10
2017-08-16T17:55:43.303Z,50.00
2017-08-16T17:58:11.735Z,51.70
2017-08-16T18:00:39.394Z,51.60
2017-08-16T18:03:07.386Z,52.10
2017-08-16T18:05:35.107Z,52.50
2017-08-16T18:08:02.765Z,53.20
2017-08-16T18:10:30.814Z,53.10
2017-08-16T18:12:59.242Z,52.60
2017-08-16T18:15:26.884Z,52.60
2017-08-16T18:17:54.913Z,52.20
2017-08-16T18:20:23.350Z,52.40
2017-08-16T18:22:51.026Z,52.40
2017-08-16T18:25:19.048Z,52.30
2017-08-16T18:27:46.744Z,53.10
2017-08-16T18:30:14.412Z,53.20
2017-08-16T18:32:42.416Z,53.50
2017-08-16T18:35:10.098Z,53.90
2017-08-16T18:37:37.746Z,54.10
2017-08-16T18:40:06.654Z,53.80
2017-08-16T18:42:34.310Z,53.80
2017-08-16T18:45:01.977Z,54.30
2017-08-16T18:47:30.043Z,54.80
2017-08-16T18:49:58.477Z,54.90
2017-08-16T18:52:26.147Z,54.90
2017-08-16T18:54:54.192Z,54.20
2017-08-16T18:57:21.855Z,54.30
2017-08-16T18:59:49.522Z,55.10
2017-08-16T19:02:17.541Z,55.50
2017-08-16T19:04:45.815Z,56.00
2017-08-16T19:07:14.229Z,56.20
2017-08-16T19:09:42.370Z,56.10
2017-08-16T19:12:10.780Z,55.90
2017-08-16T19:14:38.457Z,55.80
2017-08-16T19:17:06.461Z,56.10
2017-08-16T19:19:34.119Z,56.50
2017-08-16T19:22:01.779Z,56.90
2017-08-16T19:24:29.765Z,56.80
2017-08-16T19:26:57.417Z,56.80
2017-08-16T19:29:25.067Z,57.10
2017-08-16T19:31:53.190Z,57.20
2017-08-16T19:34:20.918Z,57.30
2017-08-16T19:36:48.832Z,57.20
2017-08-16T19:39:16.929Z,56.70
2017-08-16T19:41:45.401Z,56.40
2017-08-16T19:44:19.994Z,57.10
2017-08-16T19:46:47.642Z,56.10
2017-08-16T19:49:16.080Z,56.20
2017-08-16T19:51:43.777Z,56.20
2017-08-16T19:54:12.216Z,56.30
2017-08-16T19:56:39.917Z,56.30
2017-08-16T19:59:10.336Z,56.70
2017-08-16T20:01:38.019Z,56.90
2017-08-16T20:04:07.357Z,57.10
2017-08-16T20:06:35.469Z,57.00
2017-08-16T20:09:03.136Z,57.30
2017-08-16T20:11:30.771Z,57.40
2017-08-16T20:13:58.457Z,57.20
2017-08-16T20:16:26.132Z,57.20
2017-08-16T20:18:54.601Z,57.20
2017-08-16T20:21:22.260Z,57.10
2017-08-16T20:23:49.943Z,57.40
2017-08-16T20:26:18.432Z,57.70
2017-08-16T20:28:46.523Z,57.70
2017-08-16T20:31:14.202Z,58.00
2017-08-16T20:33:41.862Z,58.30
2017-08-16T20:36:09.528Z,58.20
2017-08-16T20:38:37.207Z,58.10
2017-08-16T20:41:04.888Z,57.80
2017-08-16T20:43:32.543Z,57.20
2017-08-16T20:46:00.553Z,56.80
2017-08-16T20:48:28.225Z,56.40
2017-08-16T20:50:56.231Z,56.60
2017-08-16T21:06:25.072Z,59.00
2017-08-16T21:08:52.754Z,59.00
2017-08-16T21:13:54.799Z,58.20
2017-08-16T21:16:23.221Z,58.20
2017-08-16T21:18:50.933Z,58.20
2017-08-16T21:21:19.017Z,58.20
2017-08-16T21:23:46.803Z,58.40
2017-08-16T21:26:14.462Z,58.40
2017-08-16T21:28:42.446Z,58.40
2017-08-16T21:31:10.129Z,58.20
2017-08-16T21:33:37.786Z,58.40
2017-08-16T21:36:06.143Z,58.60
2017-08-16T21:38:33.826Z,58.60
2017-08-16T21:41:01.868Z,58.60
2017-08-16T21:43:29.922Z,58.70
2017-08-16T21:45:57.646Z,58.60
2017-08-16T21:48:25.292Z,58.30
2017-08-16T21:50:53.321Z,58.40
2017-08-16T21:53:20.960Z,58.40
2017-08-16T21:55:49.388Z,58.90
2017-08-16T21:58:17.434Z,58.80
2017-08-16T22:00:45.127Z,58.90
2017-08-16T22:03:12.932Z,58.90
2017-08-16T22:05:41.004Z,59.20
2017-08-16T22:08:08.647Z,59.60
2017-08-16T22:10:36.285Z,59.70
2017-08-16T22:13:04.266Z,59.90
2017-08-16T22:15:31.911Z,59.80
2017-08-16T22:17:59.607Z,59.60
2017-08-16T22:20:27.726Z,59.40
2017-08-16T22:22:55.360Z,59.40
2017-08-16T22:25:23.758Z,60.50
2017-08-16T22:27:51.753Z,59.80
